UMMS/MSQ METAR and TAF weather

Enter ICAO airport designator
Station Type Date Time Source
UMMS METAR 2019/02/16 07:00 UTC NOAA

UMMS 160700Z 26003MPS 230V290 9999 OVC004 02/01 Q1023 R31/290050 NOSIG RMK QBB120


Station Type Date Time Source
UMMS Decoded METAR 2019/02/16 07:00 UTC NOAA

Minsk, Belarus (UMMS) 53-56N 027-38E 231M
Feb 16, 2019 - 02:00 AM EST / 2019.02.16 0700 UTC
Wind: from the W (260 degrees) at 7 MPH (6 KT) (direction variable):0
Visibility: greater than 7 mile(s):0
Sky conditions: overcast
Temperature: 35 F (2 C)
Windchill: 28 F (-2 C):1
Dew Point: 33 F (1 C)
Relative Humidity: 93%
Pressure (altimeter): 30.21 in. Hg (1023 hPa)
ob: UMMS 160700Z 26003MPS 230V290 9999 OVC004 02/01 Q1023 R31/290050 NOSIG RMK QBB120
cycle: 7

Station Type Date Time Source
UMMS TAF 2019/02/16 05:21 UTC NOAA

TAF TAF UMMS 160507Z 1605/1706 27005G10MPS 5000 BR BKN003 BKN007
TEMPO 1605/1608 0400 DZ FG
TEMPO 1608/1706 27008G13MPS 1200 DZ BKN002 PROB40
TEMPO 1616/1706 0500 FG VV002


Example: see airport list